createdAt,value
2018-02-16T00:00:23.635Z,88.11
2018-02-16T00:02:50.205Z,87.76
2018-02-16T00:05:17.571Z,88.46
2018-02-16T00:07:45.982Z,91.43
2018-02-16T00:10:12.577Z,92.65
2018-02-16T00:12:39.169Z,91.36
2018-02-16T00:15:05.759Z,90.39
2018-02-16T00:17:32.395Z,91.15
2018-02-16T00:19:59.024Z,89.80
2018-02-16T00:22:25.597Z,90.55
2018-02-16T00:24:52.215Z,92.15
2018-02-16T00:27:19.400Z,92.24
2018-02-16T00:29:46.014Z,91.26
2018-02-16T00:32:12.621Z,88.46
2018-02-16T00:34:39.201Z,88.79
2018-02-16T00:37:06.528Z,88.86
2018-02-16T00:39:33.135Z,91.86
2018-02-16T00:42:01.287Z,89.91
2018-02-16T00:44:27.915Z,90.43
2018-02-16T00:46:54.502Z,90.94
2018-02-16T00:49:21.120Z,89.74
2018-02-16T00:51:47.715Z,88.08
2018-02-16T00:54:14.359Z,87.74
2018-02-16T00:56:40.944Z,87.64
2018-02-16T00:59:07.520Z,86.73
2018-02-16T01:01:34.872Z,89.37
2018-02-16T01:04:01.453Z,87.66
2018-02-16T01:06:28.802Z,90.07
2018-02-16T01:08:55.398Z,90.50
2018-02-16T01:11:22.010Z,90.98
2018-02-16T01:13:48.616Z,91.60
2018-02-16T01:16:15.185Z,92.80
2018-02-16T01:18:41.830Z,92.00
2018-02-16T01:21:08.396Z,92.09
2018-02-16T01:23:35.784Z,90.83
2018-02-16T01:29:06.091Z,89.76
2018-02-16T01:34:33.776Z,87.43
2018-02-16T01:37:00.334Z,87.07
2018-02-16T01:42:27.869Z,90.95
2018-02-16T09:30:52.720Z,96.11
2018-02-16T09:51:18.547Z,94.00
2018-02-16T09:53:45.171Z,94.36
2018-02-16T09:56:12.644Z,94.64
2018-02-16T09:58:39.201Z,94.42
2018-02-16T10:01:05.820Z,93.30
2018-02-16T10:03:32.445Z,94.15
2018-02-16T10:05:59.131Z,95.15
2018-02-16T10:08:25.706Z,94.80
2018-02-16T10:10:52.306Z,93.95
2018-02-16T10:13:18.911Z,93.11
2018-02-16T10:15:46.276Z,93.78
2018-02-16T10:18:13.655Z,92.86
2018-02-16T10:20:40.982Z,93.13
2018-02-16T10:23:07.621Z,91.62
2018-02-16T10:25:34.206Z,91.04
2018-02-16T10:28:02.195Z,91.84
2018-02-16T10:30:30.604Z,93.62
2018-02-16T10:32:57.267Z,93.90
2018-02-16T10:35:23.880Z,92.92
2018-02-16T10:58:52.227Z,92.00
2018-02-16T11:01:18.796Z,91.78
2018-02-16T11:03:51.510Z,91.06
2018-02-16T11:06:24.029Z,91.32
2018-02-16T11:08:57.722Z,89.24
2018-02-16T11:11:24.396Z,88.84
2018-02-16T11:13:50.999Z,87.24
2018-02-16T11:16:17.591Z,88.15
2018-02-16T11:18:44.932Z,88.11
2018-02-16T11:21:11.590Z,88.65
2018-02-16T11:23:38.202Z,88.91
2018-02-16T11:26:04.810Z,87.40
2018-02-16T11:28:31.492Z,87.84
2018-02-16T11:30:59.075Z,86.09
2018-02-16T11:33:26.667Z,86.52
2018-02-16T11:35:53.526Z,85.48
2018-02-16T11:38:20.852Z,87.14
2018-02-16T11:40:47.669Z,85.26
2018-02-16T12:01:23.971Z,79.83
2018-02-16T12:06:38.038Z,79.71
2018-02-16T12:09:24.689Z,77.78
2018-02-16T12:11:59.542Z,77.45
2018-02-16T12:14:31.821Z,76.22
2018-02-16T12:17:03.933Z,77.67
2018-02-16T12:22:15.732Z,78.11
2018-02-16T13:07:22.462Z,68.35
2018-02-16T13:34:46.004Z,64.91
2018-02-16T13:37:12.708Z,64.22
2018-02-16T13:39:39.406Z,62.68
2018-02-16T13:42:05.997Z,63.43
2018-02-16T13:44:32.601Z,62.14
2018-02-16T13:46:59.944Z,61.49
2018-02-16T13:49:26.570Z,62.35
2018-02-16T13:51:53.211Z,61.72
2018-02-16T13:54:19.807Z,62.16
2018-02-16T13:56:46.426Z,62.68
2018-02-16T13:59:13.017Z,63.24
2018-02-16T14:01:39.645Z,63.83
2018-02-16T14:04:06.262Z,62.68
2018-02-16T14:06:33.644Z,63.25
2018-02-16T14:09:00.994Z,62.24
2018-02-16T14:11:27.646Z,62.97
2018-02-16T14:13:54.244Z,62.20
2018-02-16T14:16:20.835Z,62.60
2018-02-16T14:18:47.470Z,62.15
2018-02-16T14:21:14.137Z,61.91
2018-02-16T14:23:40.795Z,62.28
2018-02-16T14:44:08.782Z,63.11
2018-02-16T14:46:35.541Z,62.54
2018-02-16T14:49:02.207Z,62.79
2018-02-16T14:51:28.925Z,61.30
2018-02-16T14:53:56.276Z,60.97
2018-02-16T15:14:26.684Z,61.21
2018-02-16T15:16:55.710Z,60.95
2018-02-16T15:19:23.346Z,62.07
2018-02-16T15:21:50.892Z,60.50
2018-02-16T15:24:20.605Z,62.02
2018-02-16T15:26:49.559Z,61.13
2018-02-16T15:29:18.451Z,62.00
2018-02-16T15:32:01.204Z,61.52
2018-02-16T15:34:33.722Z,60.74
2018-02-16T15:37:05.583Z,60.70
2018-02-16T15:39:42.360Z,59.67
2018-02-16T15:42:31.715Z,59.70
2018-02-16T15:47:52.375Z,59.78
2018-02-16T15:55:53.612Z,61.07
2018-02-16T15:58:25.180Z,61.12
2018-02-16T16:03:41.620Z,61.51
2018-02-16T16:06:13.499Z,60.99
2018-02-16T16:11:30.235Z,61.00
2018-02-16T16:14:07.924Z,61.50
2018-02-16T16:16:38.814Z,61.87
2018-02-16T16:19:13.677Z,63.26
2018-02-16T16:21:42.001Z,62.56
2018-02-16T16:24:09.352Z,63.57
2018-02-16T16:26:36.953Z,64.39
2018-02-16T16:29:05.351Z,64.87
2018-02-16T16:34:14.402Z,65.85
2018-02-16T16:36:42.333Z,65.30
2018-02-16T16:39:10.051Z,65.99
2018-02-16T16:59:41.327Z,70.29
2018-02-16T17:02:11.708Z,70.23
2018-02-16T17:04:44.754Z,70.17
2018-02-16T17:07:15.679Z,71.38
2018-02-16T17:09:46.794Z,71.77
2018-02-16T17:12:20.985Z,71.97
2018-02-16T17:14:50.411Z,71.80
2018-02-16T17:17:26.237Z,71.85
2018-02-16T17:19:57.605Z,71.86
2018-02-16T17:22:28.822Z,72.16
2018-02-16T17:45:43.518Z,74.21
2018-02-16T17:48:11.910Z,73.96
2018-02-16T18:08:40.369Z,75.34
2018-02-16T18:11:09.822Z,76.54
2018-02-16T18:13:43.173Z,76.55
2018-02-16T18:16:11.660Z,75.69
2018-02-16T18:18:39.684Z,76.40
2018-02-16T18:21:07.866Z,77.55
2018-02-16T18:23:36.317Z,74.71
2018-02-16T18:26:04.376Z,73.65
2018-02-16T18:28:32.596Z,75.28
2018-02-16T18:31:00.814Z,73.65
2018-02-16T18:33:29.656Z,74.13
2018-02-16T18:35:57.441Z,74.03
2018-02-16T18:38:25.455Z,75.27
2018-02-16T18:40:57.632Z,75.57
2018-02-16T18:43:25.544Z,73.97
2018-02-16T18:45:53.661Z,74.15
2018-02-16T18:48:20.993Z,73.73
2018-02-16T18:50:49.040Z,73.34
2018-02-16T18:53:17.310Z,73.19
2018-02-16T18:55:44.985Z,77.55
2018-02-16T18:58:12.212Z,79.05
2018-02-16T19:00:38.825Z,79.76
2018-02-16T19:03:06.712Z,77.70
2018-02-16T19:05:34.043Z,75.58
2018-02-16T19:08:02.222Z,74.34
2018-02-16T19:10:30.379Z,73.82
2018-02-16T19:12:58.380Z,73.85
2018-02-16T19:15:26.551Z,74.06
2018-02-16T19:17:54.712Z,76.86
2018-02-16T19:20:22.964Z,78.14
2018-02-16T19:22:52.361Z,76.74
2018-02-16T19:25:21.496Z,79.29
2018-02-16T19:27:49.911Z,81.11
2018-02-16T19:30:18.157Z,82.29
2018-02-16T19:32:46.410Z,81.96
2018-02-16T19:35:14.739Z,78.42
2018-02-16T19:37:44.861Z,76.59
2018-02-16T19:40:13.295Z,75.92
2018-02-16T19:42:42.358Z,77.50
2018-02-16T19:45:11.218Z,80.78
2018-02-16T19:47:39.576Z,81.16
2018-02-16T19:50:09.054Z,80.39
2018-02-16T19:52:37.382Z,80.66
2018-02-16T19:55:05.756Z,77.55
2018-02-16T19:57:35.986Z,76.06
2018-02-16T20:00:04.487Z,75.70
2018-02-16T20:02:32.995Z,76.04
2018-02-16T20:05:01.421Z,78.03
2018-02-16T20:07:30.670Z,77.19
2018-02-16T20:10:00.424Z,76.13
2018-02-16T20:12:28.896Z,77.44
2018-02-16T20:14:57.953Z,80.85
2018-02-16T20:17:26.358Z,82.65
2018-02-16T20:19:54.568Z,80.69
2018-02-16T20:22:23.121Z,79.01
2018-02-16T20:24:51.399Z,77.61
2018-02-16T20:27:20.599Z,76.29
2018-02-16T20:29:48.823Z,75.61
2018-02-16T20:32:17.904Z,75.89
2018-02-16T20:34:46.923Z,77.78
2018-02-16T20:37:15.666Z,77.03
2018-02-16T20:39:43.989Z,76.93
2018-02-16T20:42:12.463Z,78.89
2018-02-16T20:44:40.767Z,79.05
2018-02-16T20:47:09.447Z,80.95
2018-02-16T20:49:38.705Z,80.87
2018-02-16T20:52:07.235Z,81.83
2018-02-16T20:54:36.272Z,81.72
2018-02-16T20:57:04.586Z,82.82
2018-02-16T20:59:32.868Z,78.91
2018-02-16T21:02:01.952Z,77.70
2018-02-16T21:04:31.016Z,78.79
2018-02-16T21:06:59.533Z,82.33
2018-02-16T21:09:28.228Z,83.70
2018-02-16T21:11:57.233Z,81.75
2018-02-16T21:14:25.575Z,81.73
2018-02-16T21:16:54.806Z,79.37
2018-02-16T21:19:23.301Z,78.53
2018-02-16T21:21:51.538Z,77.76
2018-02-16T21:24:23.937Z,77.74
2018-02-16T21:26:53.277Z,77.91
2018-02-16T21:29:21.686Z,77.58
2018-02-16T21:31:50.835Z,76.79
2018-02-16T21:34:24.224Z,77.94
2018-02-16T21:36:52.511Z,79.45
2018-02-16T21:39:21.873Z,82.65
2018-02-16T21:41:50.170Z,83.72
2018-02-16T21:44:18.836Z,84.13
2018-02-16T21:46:47.392Z,82.88
2018-02-16T21:49:16.001Z,80.80
2018-02-16T21:51:46.261Z,81.46
2018-02-16T21:54:14.719Z,80.13
2018-02-16T21:56:42.892Z,78.65
2018-02-16T21:59:11.198Z,78.69
2018-02-16T22:01:39.526Z,80.59
2018-02-16T22:04:07.877Z,80.23
2018-02-16T22:06:36.037Z,78.75
2018-02-16T22:09:04.639Z,78.42
2018-02-16T22:11:33.529Z,78.55
2018-02-16T22:14:01.814Z,80.61
2018-02-16T22:16:30.133Z,80.90
2018-02-16T22:18:59.159Z,83.23
2018-02-16T22:21:27.390Z,83.73
2018-02-16T22:23:55.617Z,83.22
2018-02-16T22:26:24.803Z,84.56
2018-02-16T22:28:52.925Z,83.38
2018-02-16T22:31:20.902Z,83.35
2018-02-16T22:33:49.103Z,83.95
2018-02-16T22:36:16.073Z,84.77
2018-02-16T22:38:43.006Z,85.28
2018-02-16T22:41:10.123Z,84.30
2018-02-16T22:43:36.765Z,82.35
2018-02-16T22:46:03.377Z,85.05
2018-02-16T22:48:29.997Z,85.59
2018-02-16T22:50:56.634Z,86.33
2018-02-16T22:53:23.299Z,85.10
2018-02-16T22:55:50.039Z,81.44
2018-02-16T22:58:16.632Z,79.64
2018-02-16T23:00:43.335Z,79.87
2018-02-16T23:03:09.972Z,81.03
2018-02-16T23:05:36.620Z,82.18
2018-02-16T23:08:03.318Z,80.87
2018-02-16T23:10:30.727Z,80.46
